< < Back
Terminal Aerodrome Forecast


Current Version              Previous Versions:   1  2  3  4  5  6  7  8  9  

Terminal Aerodrome Forecast

682
FTUS44 KMOB 221100 RRA
TAFPNS
TAF
KPNS 221144Z 2212/2312 30004KT P6SM SCT050 SCT250
     FM221500 25009KT P6SM VCSH BKN050
     FM230900 33004KT 4SM BR SCT050 BKN250=

Latest METAR

871
SAUS70 KWBC 230700 RRH
MTRPNS
METAR KPNS 230653Z AUTO 32004KT 4SM BR CLR 18/17 A2989 RMK AO2 SLP124
T01830167 $


USA.gov is the U.S. government's official web portal to all federal, state and local government web resources and services.